createdAt,value
2023-01-17T00:06:48.778Z,88.80
2023-01-17T00:18:49.273Z,88.43
2023-01-17T00:30:49.723Z,88.84
2023-01-17T00:42:50.134Z,88.60
2023-01-17T00:54:50.619Z,88.77
2023-01-17T01:06:51.043Z,89.33
2023-01-17T01:18:51.863Z,88.67
2023-01-17T01:30:51.992Z,89.52
2023-01-17T01:42:52.431Z,87.65
2023-01-17T01:54:52.856Z,87.76
2023-01-17T02:06:53.297Z,92.20
2023-01-17T02:18:53.790Z,94.91
2023-01-17T02:30:54.195Z,96.15
2023-01-17T02:42:54.698Z,98.54
2023-01-17T02:54:55.063Z,100.00
2023-01-17T03:06:55.548Z,100.00
2023-01-17T03:18:56.027Z,100.00
2023-01-17T03:30:56.575Z,100.00
2023-01-17T03:42:56.922Z,100.00
2023-01-17T03:54:57.339Z,100.00
2023-01-17T04:06:57.835Z,100.00
2023-01-17T04:18:58.301Z,100.00
2023-01-17T04:30:58.760Z,100.00
2023-01-17T04:42:59.172Z,100.00
2023-01-17T04:54:59.625Z,100.00
2023-01-17T05:07:00.113Z,100.00
2023-01-17T05:19:00.493Z,100.00
2023-01-17T05:31:01.024Z,100.00
2023-01-17T05:43:01.441Z,100.00
2023-01-17T05:55:01.897Z,100.00
2023-01-17T06:07:02.369Z,100.00
2023-01-17T06:19:02.748Z,100.00
2023-01-17T06:31:03.203Z,100.00
2023-01-17T06:43:03.691Z,99.44
2023-01-17T06:55:04.143Z,100.00
2023-01-17T07:07:04.560Z,99.77
2023-01-17T07:19:05.028Z,100.00
2023-01-17T07:31:05.522Z,100.00
2023-01-17T07:43:05.893Z,98.24
2023-01-17T07:55:06.375Z,98.69
2023-01-17T08:07:06.801Z,97.95
2023-01-17T08:19:07.252Z,98.12
2023-01-17T08:31:07.721Z,93.24
2023-01-17T08:43:08.179Z,88.05
2023-01-17T08:55:08.631Z,84.44
2023-01-17T09:07:09.123Z,84.56
2023-01-17T09:19:09.564Z,84.62
2023-01-17T09:31:10.156Z,84.88
2023-01-17T09:43:10.427Z,81.26
2023-01-17T09:55:10.879Z,82.78
2023-01-17T10:07:11.309Z,83.25
2023-01-17T10:19:11.900Z,84.14
2023-01-17T10:31:12.291Z,80.01
2023-01-17T10:43:12.738Z,78.44
2023-01-17T10:55:13.161Z,74.67
2023-01-17T11:07:13.656Z,65.68
2023-01-17T11:19:14.089Z,65.49
2023-01-17T11:31:14.573Z,70.71
2023-01-17T11:43:14.977Z,68.19
2023-01-17T11:55:15.436Z,68.75
2023-01-17T12:07:15.910Z,66.97
2023-01-17T12:19:16.342Z,69.06
2023-01-17T12:31:16.873Z,71.96
2023-01-17T12:43:17.248Z,72.92
2023-01-17T12:55:17.738Z,76.92
2023-01-17T13:07:18.160Z,77.88
2023-01-17T13:19:18.563Z,78.84
2023-01-17T13:31:19.107Z,79.65
2023-01-17T13:43:19.524Z,80.40
2023-01-17T13:55:19.977Z,81.91
2023-01-17T14:07:20.411Z,81.76
2023-01-17T14:19:20.884Z,81.45
2023-01-17T14:31:21.348Z,83.68
2023-01-17T14:43:21.773Z,87.14
2023-01-17T14:55:22.196Z,89.16
2023-01-17T15:07:22.694Z,89.82
2023-01-17T15:19:23.125Z,89.91
2023-01-17T15:31:23.615Z,89.56
2023-01-17T15:43:24.011Z,93.81
2023-01-17T15:55:24.525Z,94.20
2023-01-17T16:07:24.962Z,94.33
2023-01-17T16:19:25.395Z,93.36
2023-01-17T16:31:25.941Z,93.99
2023-01-17T16:43:26.305Z,95.22
2023-01-17T16:55:26.779Z,96.03
2023-01-17T17:07:27.225Z,97.06
2023-01-17T17:19:30.353Z,97.86
2023-01-17T17:31:28.138Z,97.88
2023-01-17T17:43:28.521Z,98.24
2023-01-17T17:55:29.014Z,95.87
2023-01-17T18:07:29.473Z,95.47
2023-01-17T18:19:29.918Z,100.00
2023-01-17T18:31:30.390Z,98.64
2023-01-17T18:43:30.804Z,96.28
2023-01-17T18:55:31.244Z,96.07
2023-01-17T19:07:31.700Z,96.78
2023-01-17T19:19:32.240Z,96.61
2023-01-17T19:31:32.673Z,96.37
2023-01-17T19:43:33.081Z,95.26
2023-01-17T19:55:33.514Z,96.04
2023-01-17T20:07:33.980Z,96.50
2023-01-17T20:19:34.467Z,99.04
2023-01-17T20:31:34.941Z,98.30
2023-01-17T20:43:35.326Z,98.62
2023-01-17T20:55:35.757Z,99.42
2023-01-17T21:07:36.223Z,100.00
2023-01-17T21:19:36.660Z,100.00
2023-01-17T21:31:37.132Z,99.23
2023-01-17T21:43:37.576Z,100.00
2023-01-17T21:55:38.047Z,100.00
2023-01-17T22:07:38.475Z,100.00
2023-01-17T22:19:38.969Z,100.00
2023-01-17T22:31:39.378Z,100.00
2023-01-17T22:43:39.844Z,100.00
2023-01-17T22:55:40.305Z,100.00
2023-01-17T23:07:40.736Z,100.00
2023-01-17T23:19:41.233Z,100.00
2023-01-17T23:31:41.847Z,100.00
2023-01-17T23:43:42.103Z,100.00
2023-01-17T23:55:42.549Z,100.00
